Latest Weather Observations for Wyndham Airport

IDW60801

Issued at 3:32 pm WST Sunday 19 April 2015 (issued every 30 minutes, with the page automatically refreshed every 10 minutes)

About weather observations | Map of weather stations | Latest weather observations for WA | Other Formats
Station Details ID: 001006 Name: WYNDHAM AERO Lat: -15.51 Lon: 128.15 Height: 3.8 m
Data from the previous 72 hours. | See also: Recent months for locations in Western Australia
Date/Time
WST
Temp
°C
App
Temp
°C
Dew
Point
Rel
Hum
%
Delta-T
°C
Wind Press
QNH
hPa
Press
MSL
hPa
Rain
since 9 am
mm
Dir
 
Spd
km/h
Gust
km/h
Spd
kts
Gust
kts
19/03:30pm 33.9 32.9 17.6 38 10.5 SSE 19 26 10 14 1009.9 1009.9 0.2
19/03:00pm 34.4 32.5 17.6 37 10.8 SSE 24 32 13 17 1009.7 1009.7 0.2
19/02:30pm 34.5 33.2 17.3 36 11.0 SE 20 32 11 17 1009.8 1009.8 0.2
19/02:00pm 34.6 33.5 17.8 37 10.9 SSE 20 32 11 17 1010.1 1010.1 0.2
19/01:30pm 34.1 33.0 17.3 36 10.8 SSE 19 30 10 16 1010.6 1010.6 0.2
19/01:00pm 33.7 32.6 17.8 38 10.3 SSE 20 30 11 16 1010.9 1010.9 0.2
19/12:30pm 34.3 33.8 19.1 40 10.0 SE 20 30 11 16 1010.9 1010.9 0.2
19/12:00pm 34.5 34.1 18.9 39 10.2 SE 19 35 10 19 1011.3 1011.3 0.2
19/11:30am 32.5 31.3 17.5 40 9.6 SE 20 30 11 16 1011.8 1011.8 0.2
19/11:00am 31.8 31.0 18.4 45 8.7 SE 20 28 11 15 1012.4 1012.4 0.2
19/10:30am 31.8 30.5 19.1 47 8.3 SE 24 32 13 17 1012.9 1012.9 0.2
19/10:00am 32.2 30.6 18.4 44 8.9 ESE 24 33 13 18 1013.2 1013.2 0.0
19/09:30am 30.5 29.3 19.2 51 7.4 ESE 24 35 13 19 1013.5 1013.5 0.0
19/09:00am 30.0 28.9 19.4 53 6.9 ESE 24 32 13 17 1013.8 1013.8 5.2
19/08:30am 28.5 27.8 20.2 60 5.5 SE 24 30 13 16 1013.6 1013.6 5.2
19/08:00am 28.2 27.2 20.5 63 5.1 ESE 26 35 14 19 1013.5 1013.5 5.2
19/07:30am 27.6 26.9 20.2 64 4.8 SE 24 33 13 18 1013.7 1013.7 5.2
19/07:00am 26.8 27.1 20.4 68 4.2 SE 19 28 10 15 1013.7 1013.7 5.2
19/06:30am 26.4 26.7 20.7 71 3.7 SE 20 30 11 16 1013.6 1013.6 5.2
19/06:00am 26.1 26.7 21.3 75 3.2 SE 20 26 11 14 1013.5 1013.5 5.2
19/05:30am 25.9 27.5 22.2 80 2.5 SE 17 24 9 13 1013.2 1013.2 5.2
19/05:00am 25.9 27.6 22.4 81 2.4 SSE 17 20 9 11 1012.8 1012.8 5.2
19/04:30am 25.9 27.7 22.6 82 2.2 SSE 17 20 9 11 1012.7 1012.7 5.2
19/04:00am 26.0 28.6 22.7 82 2.2 SSE 13 19 7 10 1012.6 1012.6 5.2
19/03:30am 25.7 28.1 23.0 85 1.8 SSW 15 20 8 11 1012.4 1012.4 5.2
19/03:00am 25.3 27.8 23.2 88 1.4 SW 15 19 8 10 1012.3 1012.3 5.2
19/02:30am 25.2 28.7 24.2 94 0.7 S 13 19 7 10 1012.2 1012.2 5.2
19/02:00am 24.6 26.3 23.0 91 1.1 S 19 30 10 16 1012.2 1012.2 4.6
19/01:30am 27.5 29.1 20.8 67 4.4 SSW 13 19 7 10 1011.9 1011.9 0.0
19/01:00am 27.0 28.0 21.1 70 3.9 SSW 17 20 9 11 1012.1 1012.1 0.0
19/12:30am 27.5 27.9 20.6 66 4.5 SSW 19 22 10 12 1011.9 1011.9 0.0
19/12:00am 27.6 31.3 22.3 73 3.6 N 6 11 3 6 1012.4 1012.4 0.0
 
Date/Time
WST
Temp
°C
App
Temp
°C
Dew
Point
Rel
Hum
%
Delta-T
°C
Wind Press
QNH
hPa
Press
MSL
hPa
Rain
since 9 am
mm
Dir
 
Spd
km/h
Gust
km/h
Spd
kts
Gust
kts
18/11:30pm 27.4 28.0 22.1 73 3.6 S 22 30 12 16 1012.1 1012.1 0.0
18/11:00pm 26.7 28.1 22.8 79 2.6 SW 20 26 11 14 1012.4 1012.4 0.0
18/10:30pm 28.5 30.7 21.8 67 4.5 SW 13 19 7 10 1012.2 1012.2 0.0
18/10:00pm 29.4 30.1 21.6 63 5.2 SSE 20 39 11 21 1012.2 1012.2 0.0
18/09:51pm 29.4 30.7 20.8 60 5.7 E 15 43 8 23 1011.6 1011.6 0.0
18/09:30pm 31.9 32.9 19.5 47 8.1 NNW 13 17 7 9 1011.0 1011.0 0.0
18/09:00pm 31.8 33.7 19.8 49 7.9 WSW 9 13 5 7 1011.1 1011.1 0.0
18/08:30pm 31.9 34.8 19.8 48 8.0 N 4 13 2 7 1010.7 1010.7 0.0
18/08:00pm 32.0 35.8 20.9 52 7.4 NNW 2 9 1 5 1010.7 1010.7 0.0
18/07:30pm 32.2 33.6 21.1 52 7.5 N 15 22 8 12 1010.4 1010.4 0.0
18/07:00pm 32.5 34.2 21.0 50 7.7 N 13 24 7 13 1010.1 1010.1 0.0
18/06:30pm 32.5 33.3 20.7 49 7.9 N 17 24 9 13 1009.6 1009.6 0.0
18/06:00pm 32.7 33.6 20.9 49 7.9 N 17 22 9 12 1008.9 1008.9 0.0
18/05:30pm 33.4 34.1 20.5 46 8.6 N 17 28 9 15 1008.3 1008.3 0.0
18/05:00pm 34.2 34.4 20.2 43 9.4 N 19 24 10 13 1008.0 1008.0 0.0
18/04:30pm 35.4 36.0 18.5 37 11.1 N 13 20 7 11 1007.7 1007.7 0.0
18/04:00pm 36.3 36.4 17.4 32 12.2 NE 13 20 7 11 1007.5 1007.5 0.0
18/03:30pm 36.9 37.8 17.5 32 12.6 NE 9 15 5 8 1007.5 1007.5 0.0
18/03:00pm 36.8 38.2 17.4 32 12.6 ENE 6 13 3 7 1007.4 1007.4 0.0
18/02:30pm 37.4 38.1 17.9 31 12.7 ENE 11 15 6 8 1007.5 1007.5 0.0
18/02:00pm 36.2 37.2 17.8 33 12.0 ENE 9 15 5 8 1007.8 1007.8 0.0
18/01:30pm 36.1 37.3 18.2 34 11.7 NE 9 30 5 16 1008.2 1008.2 0.0
18/01:00pm 36.7 37.9 18.3 34 12.1 NE 9 17 5 9 1008.6 1008.6 0.0
18/12:30pm 35.5 37.8 18.6 37 11.1 SW 4 9 2 5 1009.0 1009.0 0.0
18/12:00pm 35.4 37.7 18.5 37 11.1 E 4 9 2 5 1009.5 1009.5 0.0
18/11:30am 36.2 38.2 19.2 37 11.3 N 7 13 4 7 1010.1 1010.1 0.0
18/11:00am 35.1 36.9 19.5 40 10.3 ESE 9 17 5 9 1010.7 1010.7 0.0
18/10:30am 34.7 37.0 19.9 42 9.8 ENE 7 13 4 7 1011.4 1011.4 0.0
18/10:00am 33.8 36.3 20.2 44 9.1 ESE 7 13 4 7 1011.7 1011.7 0.0
18/09:30am 33.7 36.7 20.8 46 8.7 SSW 6 13 3 7 1012.0 1012.0 0.0
18/09:00am 32.8 35.8 21.3 50 7.8 SW 7 13 4 7 1012.4 1012.4 0.0
18/08:30am 32.0 35.3 21.8 54 6.9 S 7 15 4 8 1012.5 1012.5 0.0
18/08:00am 31.2 34.4 21.7 57 6.4 SW 7 9 4 5 1012.3 1012.3 0.0
18/07:30am 30.6 33.7 21.4 58 6.2 W 7 11 4 6 1012.0 1012.0 0.0
18/07:00am 29.7 32.3 21.9 63 5.3 WNW 11 15 6 8 1012.0 1012.0 0.0
18/06:30am 29.8 32.3 21.7 61 5.4 WNW 11 13 6 7 1011.9 1011.9 0.0
18/06:00am 28.6 32.1 21.9 67 4.5 NNW 6 7 3 4 1011.8 1011.8 0.0
18/05:30am 28.6 31.0 21.6 66 4.7 WSW 11 15 6 8 1011.4 1011.4 0.0
18/05:00am 27.9 31.0 21.4 67 4.3 W 7 13 4 7 1011.1 1011.1 0.0
18/04:30am 27.8 30.6 20.9 66 4.6 W 7 9 4 5 1010.8 1010.8 0.0
18/04:00am 27.5 29.8 20.6 66 4.5 NW 9 11 5 6 1010.5 1010.5 0.0
18/03:30am 27.9 30.4 20.2 63 5.0 NW 7 9 4 5 1010.1 1010.1 0.0
18/03:00am 27.9 30.0 20.2 63 5.1 NNW 9 11 5 6 1009.9 1009.9 0.0
18/02:30am 27.9 30.1 20.5 64 4.9 NNW 9 11 5 6 1009.8 1009.8 0.0
18/02:00am 27.7 29.9 20.3 64 4.9 NNW 9 11 5 6 1009.8 1009.8 0.0
18/01:30am 28.4 30.8 20.1 60 5.4 WNW 7 9 4 5 1010.1 1010.1 0.0
18/01:00am 28.7 31.4 20.2 60 5.6 NW 6 9 3 5 1010.3 1010.3 0.0
18/12:30am 29.3 31.8 20.2 58 6.0 NW 7 9 4 5 1010.5 1010.5 0.0
18/12:00am 28.6 32.1 20.3 60 5.5 NW 2 7 1 4 1010.8 1010.8 0.0
 
Date/Time
WST
Temp
°C
App
Temp
°C
Dew
Point
Rel
Hum
%
Delta-T
°C
Wind Press
QNH
hPa
Press
MSL
hPa
Rain
since 9 am
mm
Dir
 
Spd
km/h
Gust
km/h
Spd
kts
Gust
kts
17/11:30pm 27.8 31.3 19.6 61 5.3 CALM 0 0 0 0 1010.7 1010.7 0.0
17/11:00pm 28.4 32.1 19.9 60 5.6 CALM 0 0 0 0 1010.8 1010.8 0.0
17/10:30pm 29.3 32.7 19.3 55 6.5 CALM 0 0 0 0 1010.9 1010.9 0.0
17/10:00pm 30.6 33.3 20.2 53 6.9 WNW 6 11 3 6 1011.0 1011.0 0.0
17/09:30pm 31.1 34.1 20.1 52 7.3 SE 4 7 2 4 1011.0 1011.0 0.0
17/09:00pm 31.3 33.8 19.9 50 7.5 NNW 6 13 3 7 1011.2 1011.2 0.0
17/08:30pm 31.3 34.4 20.3 52 7.3 SSW 4 9 2 5 1011.2 1011.2 0.0
17/08:00pm 31.3 34.1 19.6 49 7.7 NNW 4 11 2 6 1010.9 1010.9 0.0
17/07:30pm 31.4 32.1 19.7 49 7.7 N 15 20 8 11 1010.5 1010.5 0.0
17/07:00pm 31.5 31.8 19.5 49 7.9 N 17 24 9 13 1010.1 1010.1 0.0
17/06:30pm 31.6 31.6 20.2 50 7.6 N 20 28 11 15 1009.6 1009.6 0.0
17/06:00pm 31.9 31.2 19.5 47 8.2 N 22 32 12 17 1009.1 1009.1 0.0
17/05:30pm 32.3 31.8 19.9 48 8.2 N 22 30 12 16 1008.9 1008.9 0.0
17/05:00pm 32.9 32.1 20.1 47 8.5 N 24 32 13 17 1008.3 1008.3 0.0
17/04:30pm 34.0 32.8 20.0 43 9.3 N 26 35 14 19 1008.1 1008.1 0.0
17/04:00pm 35.5 35.3 19.4 38 10.7 NNW 19 28 10 15 1007.8 1007.8 0.0
17/03:30pm 35.7 35.2 19.2 38 10.9 N 20 32 11 17 1007.7 1007.7 0.0
17/03:00pm 35.8 35.6 19.7 39 10.7 NNW 20 28 11 15 1007.8 1007.8 0.0
17/02:30pm 35.4 34.8 18.5 37 11.1 N 19 24 10 13 1008.0 1008.0 0.0
17/02:00pm 36.0 37.0 19.4 37 11.0 NNW 13 19 7 10 1008.1 1008.1 0.0
17/01:30pm 35.7 35.8 19.2 38 10.9 N 17 26 9 14 1008.4 1008.4 0.0
17/01:00pm 36.6 36.5 19.5 36 11.4 N 19 30 10 16 1008.8 1008.8 0.0
17/12:30pm 36.0 35.2 17.2 33 12.1 NNE 17 37 9 20 1009.3 1009.3 0.0
17/12:00pm 36.0 36.4 17.2 33 12.1 NE 11 24 6 13 1009.8 1009.8 0.0
17/11:30am 36.6 36.8 17.7 32 12.3 ESE 13 20 7 11 1010.3 1010.3 0.0
17/11:00am 35.3 35.6 18.0 36 11.2 ENE 13 24 7 13 1010.8 1010.8 0.0
17/10:30am 34.3 35.2 18.3 38 10.4 NE 11 20 6 11 1011.5 1011.5 0.0
17/10:00am 35.4 36.9 18.9 37 10.9 ESE 9 19 5 10 1012.0 1012.0 0.0
17/09:30am 34.3 35.5 19.1 40 10.0 SSE 11 17 6 9 1012.4 1012.4 0.0
17/09:00am 33.1 36.1 20.9 48 8.2 SSW 6 11 3 6 1012.9 1012.9 0.0
17/08:30am 32.7 35.9 21.2 50 7.7 ENE 6 11 3 6 1013.0 1013.0 0.0
17/08:00am 31.6 35.9 21.2 54 7.0 CALM 0 0 0 0 1013.2 1013.2 0.0
17/07:30am 30.7 35.3 21.8 59 6.0 CALM 0 0 0 0 1013.2 1013.2 0.0
17/07:00am 29.8 34.0 21.7 61 5.4 SSW 2 7 1 4 1013.1 1013.1 0.0
17/06:30am 28.8 32.4 22.1 67 4.5 NNW 6 7 3 4 1013.0 1013.0 0.0
17/06:00am 28.1 31.1 21.9 69 4.2 NNW 9 13 5 7 1012.8 1012.8 0.0
17/05:30am 27.1 29.8 21.4 71 3.8 N 9 11 5 6 1012.5 1012.5 0.0
17/05:00am 27.0 29.9 21.1 70 3.9 NW 7 7 4 4 1012.2 1012.2 0.0
17/04:30am 26.7 29.9 21.2 72 3.6 NW 6 7 3 4 1011.7 1011.7 0.0
17/04:00am 26.6 30.1 22.2 77 3.0 N 7 9 4 5 1011.5 1011.5 0.0
17/03:30am 26.9 30.9 22.7 78 2.8 NW 6 9 3 5 1011.3 1011.3 0.0
17/03:00am 26.8 30.6 22.4 77 3.0 SSW 6 7 3 4 1011.1 1011.1 0.0
17/02:30am 26.5 31.6 22.6 79 2.6 CALM 0 0 0 0 1011.0 1011.0 0.0
17/02:00am 26.8 32.0 22.8 79 2.7 CALM 0 0 0 0 1011.1 1011.1 0.0
17/01:30am 26.8 30.4 22.4 77 3.0 E 7 9 4 5 1011.5 1011.5 0.0
17/01:00am 27.2 30.9 22.6 76 3.1 ESE 7 9 4 5 1011.6 1011.6 0.0
17/12:30am 27.4 31.1 22.6 75 3.2 E 7 9 4 5 1012.1 1012.1 0.0
17/12:00am 27.6 31.1 22.8 75 3.3 ENE 9 9 5 5 1012.3 1012.3 0.0
 
Date/Time
WST
Temp
°C
App
Temp
°C
Dew
Point
Rel
Hum
%
Delta-T
°C
Wind Press
QNH
hPa
Press
MSL
hPa
Rain
since 9 am
mm
Dir
 
Spd
km/h
Gust
km/h
Spd
kts
Gust
kts
16/11:30pm 28.2 32.1 22.9 73 3.6 ESE 7 11 4 6 1012.7 1012.7 0.0
16/11:00pm 28.0 30.7 22.2 70 3.9 ESE 11 13 6 7 1012.8 1012.8 0.0
16/10:30pm 28.6 31.3 21.4 65 4.8 E 9 9 5 5 1013.0 1013.0 0.0
16/10:00pm 29.2 32.8 19.8 57 6.2 CALM 0 0 0 0 1013.1 1013.1 0.0
16/09:30pm 30.4 33.7 20.0 53 6.8 SW 2 6 1 3 1013.1 1013.1 0.0
16/09:00pm 31.0 33.2 20.3 53 7.1 N 9 13 5 7 1013.3 1013.3 0.0
16/08:30pm 31.0 33.4 20.9 55 6.7 N 9 11 5 6 1013.1 1013.1 0.0
16/08:00pm 31.2 34.3 21.1 55 6.8 N 6 7 3 4 1013.0 1013.0 0.0
16/07:30pm 30.9 33.2 21.4 57 6.4 NNE 11 13 6 7 1012.8 1012.8 0.0
16/07:00pm 31.4 34.7 21.8 56 6.5 NW 7 11 4 6 1012.2 1012.2 0.0
16/06:30pm 31.7 35.0 21.8 55 6.7 WNW 7 11 4 6 1011.6 1011.6 0.0
16/06:00pm 31.9 34.8 21.7 54 6.9 N 9 15 5 8 1011.0 1011.0 0.0
16/05:30pm 32.3 34.5 21.8 54 7.1 N 13 24 7 13 1010.7 1010.7 0.0
16/05:00pm 32.8 33.9 22.0 53 7.4 N 19 26 10 14 1010.3 1010.3 0.0
16/04:30pm 33.4 34.3 21.9 51 7.8 N 20 30 11 16 1010.1 1010.1 0.0
16/04:00pm 34.0 34.4 21.8 49 8.3 N 22 30 12 16 1009.9 1009.9 0.0

Other Formats:

Comma delimited format used in spreadsheet applications
http://www.bom.gov.au/fwo/IDW60801/IDW60801.95214.axf

JavaScript Object Notation format (JSON) in row-major order
http://www.bom.gov.au/fwo/IDW60801/IDW60801.95214.json